sensor_id;sensor_type;location;lat;lon;timestamp;P1;durP1;ratioP1;P2;durP2;ratioP2
4021;SDS011;2025;48.260;16.432;2023-05-06T00:01:23;14.00;;;7.57;;
4021;SDS011;2025;48.260;16.432;2023-05-06T00:03:50;15.95;;;7.68;;
4021;SDS011;2025;48.260;16.432;2023-05-06T00:06:17;13.48;;;7.45;;
4021;SDS011;2025;48.260;16.432;2023-05-06T00:08:45;13.38;;;6.65;;
4021;SDS011;2025;48.260;16.432;2023-05-06T00:11:12;13.18;;;6.38;;
4021;SDS011;2025;48.260;16.432;2023-05-06T00:13:39;15.02;;;7.78;;
4021;SDS011;2025;48.260;16.432;2023-05-06T00:16:06;14.80;;;7.07;;
4021;SDS011;2025;48.260;16.432;2023-05-06T00:18:33;14.38;;;6.53;;
4021;SDS011;2025;48.260;16.432;2023-05-06T00:21:00;11.43;;;5.75;;
4021;SDS011;2025;48.260;16.432;2023-05-06T00:23:27;12.70;;;6.95;;
4021;SDS011;2025;48.260;16.432;2023-05-06T00:25:56;14.10;;;7.25;;
4021;SDS011;2025;48.260;16.432;2023-05-06T00:28:22;12.35;;;6.07;;
4021;SDS011;2025;48.260;16.432;2023-05-06T00:30:49;15.07;;;8.38;;
4021;SDS011;2025;48.260;16.432;2023-05-06T00:33:16;16.13;;;7.28;;
4021;SDS011;2025;48.260;16.432;2023-05-06T00:35:43;15.30;;;7.57;;
4021;SDS011;2025;48.260;16.432;2023-05-06T00:38:11;14.57;;;6.97;;
4021;SDS011;2025;48.260;16.432;2023-05-06T00:40:39;14.43;;;7.68;;
4021;SDS011;2025;48.260;16.432;2023-05-06T00:43:08;14.27;;;7.63;;
4021;SDS011;2025;48.260;16.432;2023-05-06T00:45:35;15.02;;;7.90;;
4021;SDS011;2025;48.260;16.432;2023-05-06T00:48:02;15.85;;;7.72;;
4021;SDS011;2025;48.260;16.432;2023-05-06T00:50:30;17.58;;;8.52;;
4021;SDS011;2025;48.260;16.432;2023-05-06T00:52:58;20.27;;;9.13;;
4021;SDS011;2025;48.260;16.432;2023-05-06T00:55:27;13.93;;;7.78;;
4021;SDS011;2025;48.260;16.432;2023-05-06T00:57:55;19.95;;;8.85;;
4021;SDS011;2025;48.260;16.432;2023-05-06T01:00:24;15.50;;;8.27;;
4021;SDS011;2025;48.260;16.432;2023-05-06T01:02:51;16.15;;;8.02;;
4021;SDS011;2025;48.260;16.432;2023-05-06T01:05:19;15.00;;;6.93;;
4021;SDS011;2025;48.260;16.432;2023-05-06T01:07:51;12.10;;;7.22;;
4021;SDS011;2025;48.260;16.432;2023-05-06T01:10:23;15.75;;;7.07;;
4021;SDS011;2025;48.260;16.432;2023-05-06T01:12:57;14.82;;;6.88;;
4021;SDS011;2025;48.260;16.432;2023-05-06T01:15:34;14.80;;;7.30;;
4021;SDS011;2025;48.260;16.432;2023-05-06T01:18:07;14.40;;;6.47;;
4021;SDS011;2025;48.260;16.432;2023-05-06T01:23:07;12.80;;;6.45;;
4021;SDS011;2025;48.260;16.432;2023-05-06T01:25:36;13.07;;;5.80;;
4021;SDS011;2025;48.260;16.432;2023-05-06T01:28:03;10.07;;;5.68;;
4021;SDS011;2025;48.260;16.432;2023-05-06T01:30:34;11.02;;;5.45;;
4021;SDS011;2025;48.260;16.432;2023-05-06T01:33:10;11.23;;;5.25;;
4021;SDS011;2025;48.260;16.432;2023-05-06T01:35:46;11.25;;;5.47;;
4021;SDS011;2025;48.260;16.432;2023-05-06T01:38:24;9.95;;;5.10;;
4021;SDS011;2025;48.260;16.432;2023-05-06T01:40:56;9.02;;;4.82;;
4021;SDS011;2025;48.260;16.432;2023-05-06T01:43:27;8.93;;;4.82;;
4021;SDS011;2025;48.260;16.432;2023-05-06T01:45:56;10.88;;;5.30;;
4021;SDS011;2025;48.260;16.432;2023-05-06T01:48:28;8.98;;;4.75;;
4021;SDS011;2025;48.260;16.432;2023-05-06T01:50:57;8.07;;;3.40;;
4021;SDS011;2025;48.260;16.432;2023-05-06T01:53:25;6.88;;;2.53;;
4021;SDS011;2025;48.260;16.432;2023-05-06T01:55:52;7.82;;;3.08;;
4021;SDS011;2025;48.260;16.432;2023-05-06T01:58:19;7.05;;;2.22;;
4021;SDS011;2025;48.260;16.432;2023-05-06T02:00:46;4.47;;;1.48;;
4021;SDS011;2025;48.260;16.432;2023-05-06T02:03:13;5.68;;;1.95;;
4021;SDS011;2025;48.260;16.432;2023-05-06T02:05:40;5.28;;;1.80;;
4021;SDS011;2025;48.260;16.432;2023-05-06T02:08:07;4.00;;;0.65;;
4021;SDS011;2025;48.260;16.432;2023-05-06T02:10:35;4.03;;;1.08;;
4021;SDS011;2025;48.260;16.432;2023-05-06T02:13:02;3.78;;;0.68;;
4021;SDS011;2025;48.260;16.432;2023-05-06T02:15:29;3.55;;;0.80;;
4021;SDS011;2025;48.260;16.432;2023-05-06T02:17:56;3.60;;;0.52;;
4021;SDS011;2025;48.260;16.432;2023-05-06T02:20:24;3.08;;;0.45;;
4021;SDS011;2025;48.260;16.432;2023-05-06T02:22:50;2.75;;;0.65;;
4021;SDS011;2025;48.260;16.432;2023-05-06T02:25:17;1.83;;;0.22;;
4021;SDS011;2025;48.260;16.432;2023-05-06T02:27:46;2.70;;;0.80;;
4021;SDS011;2025;48.260;16.432;2023-05-06T02:30:13;2.45;;;0.47;;
4021;SDS011;2025;48.260;16.432;2023-05-06T02:32:40;5.45;;;0.68;;
4021;SDS011;2025;48.260;16.432;2023-05-06T02:35:07;2.55;;;0.52;;
4021;SDS011;2025;48.260;16.432;2023-05-06T02:37:34;1.85;;;0.50;;
4021;SDS011;2025;48.260;16.432;2023-05-06T02:40:01;1.75;;;0.20;;
4021;SDS011;2025;48.260;16.432;2023-05-06T02:42:30;2.80;;;0.32;;
4021;SDS011;2025;48.260;16.432;2023-05-06T02:45:00;1.67;;;0.32;;
4021;SDS011;2025;48.260;16.432;2023-05-06T02:47:27;1.35;;;0.22;;
4021;SDS011;2025;48.260;16.432;2023-05-06T02:49:54;1.73;;;0.25;;
4021;SDS011;2025;48.260;16.432;2023-05-06T02:52:21;1.98;;;1.27;;
4021;SDS011;2025;48.260;16.432;2023-05-06T02:54:48;1.73;;;0.20;;
4021;SDS011;2025;48.260;16.432;2023-05-06T02:57:15;2.45;;;0.60;;
4021;SDS011;2025;48.260;16.432;2023-05-06T02:59:42;2.40;;;0.47;;
4021;SDS011;2025;48.260;16.432;2023-05-06T03:02:10;1.98;;;0.65;;
4021;SDS011;2025;48.260;16.432;2023-05-06T03:04:37;3.95;;;0.55;;
4021;SDS011;2025;48.260;16.432;2023-05-06T03:07:04;1.63;;;0.28;;
4021;SDS011;2025;48.260;16.432;2023-05-06T03:09:31;1.92;;;0.68;;
4021;SDS011;2025;48.260;16.432;2023-05-06T03:11:58;2.28;;;0.40;;
4021;SDS011;2025;48.260;16.432;2023-05-06T03:14:26;2.17;;;0.43;;
4021;SDS011;2025;48.260;16.432;2023-05-06T03:16:53;1.63;;;0.50;;
4021;SDS011;2025;48.260;16.432;2023-05-06T03:19:21;1.65;;;0.35;;
4021;SDS011;2025;48.260;16.432;2023-05-06T03:21:48;1.35;;;0.22;;
4021;SDS011;2025;48.260;16.432;2023-05-06T03:24:15;2.28;;;0.50;;
4021;SDS011;2025;48.260;16.432;2023-05-06T03:26:42;1.60;;;0.32;;
4021;SDS011;2025;48.260;16.432;2023-05-06T03:29:09;1.70;;;0.45;;
4021;SDS011;2025;48.260;16.432;2023-05-06T03:31:36;1.67;;;0.32;;
4021;SDS011;2025;48.260;16.432;2023-05-06T03:34:03;2.45;;;0.35;;
4021;SDS011;2025;48.260;16.432;2023-05-06T03:36:31;1.52;;;0.20;;
4021;SDS011;2025;48.260;16.432;2023-05-06T03:38:58;1.98;;;0.25;;
4021;SDS011;2025;48.260;16.432;2023-05-06T03:41:25;2.35;;;0.60;;
4021;SDS011;2025;48.260;16.432;2023-05-06T03:43:52;1.40;;;0.15;;
4021;SDS011;2025;48.260;16.432;2023-05-06T03:46:19;1.92;;;0.22;;
4021;SDS011;2025;48.260;16.432;2023-05-06T03:48:46;1.98;;;0.52;;
4021;SDS011;2025;48.260;16.432;2023-05-06T03:51:13;2.50;;;0.90;;
4021;SDS011;2025;48.260;16.432;2023-05-06T03:53:42;1.85;;;0.30;;
4021;SDS011;2025;48.260;16.432;2023-05-06T03:56:09;1.65;;;0.20;;
4021;SDS011;2025;48.260;16.432;2023-05-06T03:58:36;2.80;;;0.63;;
4021;SDS011;2025;48.260;16.432;2023-05-06T04:01:03;2.85;;;0.43;;
4021;SDS011;2025;48.260;16.432;2023-05-06T04:03:29;1.50;;;0.40;;
4021;SDS011;2025;48.260;16.432;2023-05-06T04:05:56;1.85;;;0.22;;
4021;SDS011;2025;48.260;16.432;2023-05-06T04:08:23;3.28;;;0.75;;
4021;SDS011;2025;48.260;16.432;2023-05-06T04:10:52;1.73;;;0.20;;
4021;SDS011;2025;48.260;16.432;2023-05-06T04:13:19;2.28;;;0.45;;
4021;SDS011;2025;48.260;16.432;2023-05-06T04:15:47;1.88;;;0.20;;
4021;SDS011;2025;48.260;16.432;2023-05-06T04:18:14;2.38;;;0.20;;
4021;SDS011;2025;48.260;16.432;2023-05-06T04:20:44;2.22;;;0.35;;
4021;SDS011;2025;48.260;16.432;2023-05-06T04:23:12;1.35;;;0.20;;
4021;SDS011;2025;48.260;16.432;2023-05-06T04:25:39;1.63;;;0.25;;
4021;SDS011;2025;48.260;16.432;2023-05-06T04:28:08;1.88;;;0.25;;
4021;SDS011;2025;48.260;16.432;2023-05-06T04:30:36;2.22;;;0.43;;
4021;SDS011;2025;48.260;16.432;2023-05-06T04:33:03;1.58;;;0.43;;
4021;SDS011;2025;48.260;16.432;2023-05-06T04:35:30;1.92;;;0.47;;
4021;SDS011;2025;48.260;16.432;2023-05-06T04:37:57;2.78;;;0.45;;
4021;SDS011;2025;48.260;16.432;2023-05-06T04:40:25;3.03;;;0.35;;
4021;SDS011;2025;48.260;16.432;2023-05-06T04:42:52;2.22;;;0.30;;
4021;SDS011;2025;48.260;16.432;2023-05-06T04:45:21;3.08;;;0.52;;
4021;SDS011;2025;48.260;16.432;2023-05-06T04:47:48;2.15;;;0.47;;
4021;SDS011;2025;48.260;16.432;2023-05-06T04:50:16;2.17;;;0.60;;
4021;SDS011;2025;48.260;16.432;2023-05-06T04:52:43;2.30;;;0.38;;
4021;SDS011;2025;48.260;16.432;2023-05-06T04:55:10;1.83;;;0.45;;
4021;SDS011;2025;48.260;16.432;2023-05-06T04:57:37;1.63;;;0.20;;
4021;SDS011;2025;48.260;16.432;2023-05-06T05:00:05;2.63;;;0.47;;
4021;SDS011;2025;48.260;16.432;2023-05-06T05:02:35;2.90;;;0.30;;
4021;SDS011;2025;48.260;16.432;2023-05-06T05:05:02;3.33;;;0.75;;
4021;SDS011;2025;48.260;16.432;2023-05-06T05:07:29;3.92;;;0.47;;
4021;SDS011;2025;48.260;16.432;2023-05-06T05:09:56;4.35;;;0.45;;
4021;SDS011;2025;48.260;16.432;2023-05-06T05:12:23;3.55;;;0.47;;
4021;SDS011;2025;48.260;16.432;2023-05-06T05:14:50;2.80;;;0.85;;
4021;SDS011;2025;48.260;16.432;2023-05-06T05:17:17;3.10;;;0.77;;
4021;SDS011;2025;48.260;16.432;2023-05-06T05:19:45;4.13;;;0.68;;
4021;SDS011;2025;48.260;16.432;2023-05-06T05:22:12;3.33;;;0.80;;
4021;SDS011;2025;48.260;16.432;2023-05-06T05:24:39;2.15;;;0.38;;
4021;SDS011;2025;48.260;16.432;2023-05-06T05:27:06;1.83;;;0.32;;
4021;SDS011;2025;48.260;16.432;2023-05-06T05:29:35;3.38;;;0.93;;
4021;SDS011;2025;48.260;16.432;2023-05-06T05:32:02;3.42;;;0.88;;
4021;SDS011;2025;48.260;16.432;2023-05-06T05:34:29;5.22;;;1.02;;
4021;SDS011;2025;48.260;16.432;2023-05-06T05:36:58;2.33;;;0.52;;
4021;SDS011;2025;48.260;16.432;2023-05-06T05:39:25;2.88;;;0.95;;
4021;SDS011;2025;48.260;16.432;2023-05-06T05:41:51;2.88;;;0.68;;
4021;SDS011;2025;48.260;16.432;2023-05-06T05:44:18;2.35;;;0.38;;
4021;SDS011;2025;48.260;16.432;2023-05-06T05:46:45;4.03;;;0.95;;
4021;SDS011;2025;48.260;16.432;2023-05-06T05:49:12;2.42;;;0.35;;
4021;SDS011;2025;48.260;16.432;2023-05-06T05:51:39;3.45;;;0.55;;
4021;SDS011;2025;48.260;16.432;2023-05-06T05:54:07;2.92;;;0.98;;
4021;SDS011;2025;48.260;16.432;2023-05-06T05:56:34;4.53;;;0.52;;
4021;SDS011;2025;48.260;16.432;2023-05-06T05:59:01;2.55;;;0.55;;
4021;SDS011;2025;48.260;16.432;2023-05-06T06:01:28;3.88;;;0.70;;
4021;SDS011;2025;48.260;16.432;2023-05-06T06:03:55;3.13;;;0.73;;
4021;SDS011;2025;48.260;16.432;2023-05-06T06:06:23;2.90;;;0.40;;
4021;SDS011;2025;48.260;16.432;2023-05-06T06:08:50;3.15;;;0.68;;
4021;SDS011;2025;48.260;16.432;2023-05-06T06:11:18;2.70;;;0.40;;
4021;SDS011;2025;48.260;16.432;2023-05-06T06:13:46;3.70;;;0.95;;
4021;SDS011;2025;48.260;16.432;2023-05-06T06:16:13;3.95;;;0.68;;
4021;SDS011;2025;48.260;16.432;2023-05-06T06:18:40;4.22;;;1.10;;
4021;SDS011;2025;48.260;16.432;2023-05-06T06:21:07;3.50;;;0.60;;
4021;SDS011;2025;48.260;16.432;2023-05-06T06:23:34;4.20;;;0.52;;
4021;SDS011;2025;48.260;16.432;2023-05-06T06:26:01;2.80;;;0.73;;
4021;SDS011;2025;48.260;16.432;2023-05-06T06:28:30;3.92;;;0.65;;
4021;SDS011;2025;48.260;16.432;2023-05-06T06:30:57;2.92;;;0.77;;
4021;SDS011;2025;48.260;16.432;2023-05-06T06:33:24;5.03;;;1.02;;
4021;SDS011;2025;48.260;16.432;2023-05-06T06:35:50;3.40;;;1.08;;
4021;SDS011;2025;48.260;16.432;2023-05-06T06:38:17;4.95;;;1.30;;
4021;SDS011;2025;48.260;16.432;2023-05-06T06:40:44;3.38;;;0.98;;
4021;SDS011;2025;48.260;16.432;2023-05-06T06:43:11;5.63;;;1.25;;
4021;SDS011;2025;48.260;16.432;2023-05-06T06:45:40;4.20;;;0.88;;
4021;SDS011;2025;48.260;16.432;2023-05-06T06:48:07;3.75;;;0.40;;
4021;SDS011;2025;48.260;16.432;2023-05-06T06:50:33;5.07;;;0.77;;
4021;SDS011;2025;48.260;16.432;2023-05-06T06:53:00;2.83;;;0.65;;
4021;SDS011;2025;48.260;16.432;2023-05-06T06:55:27;3.15;;;0.40;;
4021;SDS011;2025;48.260;16.432;2023-05-06T06:57:55;2.88;;;0.43;;
4021;SDS011;2025;48.260;16.432;2023-05-06T07:00:22;3.42;;;0.30;;
4021;SDS011;2025;48.260;16.432;2023-05-06T07:02:50;4.45;;;0.60;;
4021;SDS011;2025;48.260;16.432;2023-05-06T07:05:18;3.38;;;0.55;;
4021;SDS011;2025;48.260;16.432;2023-05-06T07:07:45;2.08;;;0.20;;
4021;SDS011;2025;48.260;16.432;2023-05-06T07:10:12;2.95;;;0.40;;
4021;SDS011;2025;48.260;16.432;2023-05-06T07:12:39;2.28;;;0.20;;
4021;SDS011;2025;48.260;16.432;2023-05-06T07:15:06;2.28;;;0.35;;
4021;SDS011;2025;48.260;16.432;2023-05-06T07:17:33;3.05;;;0.20;;
4021;SDS011;2025;48.260;16.432;2023-05-06T07:20:02;2.35;;;0.25;;
4021;SDS011;2025;48.260;16.432;2023-05-06T07:22:29;3.20;;;0.73;;
4021;SDS011;2025;48.260;16.432;2023-05-06T07:24:56;3.47;;;0.80;;
4021;SDS011;2025;48.260;16.432;2023-05-06T07:27:23;5.20;;;0.45;;
4021;SDS011;2025;48.260;16.432;2023-05-06T07:29:51;2.33;;;0.28;;
4021;SDS011;2025;48.260;16.432;2023-05-06T07:32:18;2.60;;;0.30;;
4021;SDS011;2025;48.260;16.432;2023-05-06T07:34:45;3.70;;;0.40;;
4021;SDS011;2025;48.260;16.432;2023-05-06T07:37:14;2.38;;;0.60;;
4021;SDS011;2025;48.260;16.432;2023-05-06T07:39:40;4.25;;;0.45;;
4021;SDS011;2025;48.260;16.432;2023-05-06T07:42:07;2.33;;;0.40;;
4021;SDS011;2025;48.260;16.432;2023-05-06T07:44:37;2.72;;;0.20;;
4021;SDS011;2025;48.260;16.432;2023-05-06T07:47:04;2.88;;;0.45;;
4021;SDS011;2025;48.260;16.432;2023-05-06T07:49:31;3.00;;;0.40;;
4021;SDS011;2025;48.260;16.432;2023-05-06T07:51:59;3.75;;;0.63;;
4021;SDS011;2025;48.260;16.432;2023-05-06T07:54:29;1.98;;;0.30;;
4021;SDS011;2025;48.260;16.432;2023-05-06T07:56:56;2.38;;;0.32;;
4021;SDS011;2025;48.260;16.432;2023-05-06T07:59:23;2.45;;;0.22;;
4021;SDS011;2025;48.260;16.432;2023-05-06T08:01:50;2.30;;;0.30;;
4021;SDS011;2025;48.260;16.432;2023-05-06T08:04:17;2.10;;;0.20;;
4021;SDS011;2025;48.260;16.432;2023-05-06T08:06:44;2.55;;;0.52;;
4021;SDS011;2025;48.260;16.432;2023-05-06T08:09:11;2.88;;;0.28;;
4021;SDS011;2025;48.260;16.432;2023-05-06T08:11:40;2.45;;;0.45;;
4021;SDS011;2025;48.260;16.432;2023-05-06T08:14:07;2.38;;;0.47;;
4021;SDS011;2025;48.260;16.432;2023-05-06T08:16:34;2.50;;;0.43;;
4021;SDS011;2025;48.260;16.432;2023-05-06T08:19:01;3.92;;;0.70;;
4021;SDS011;2025;48.260;16.432;2023-05-06T08:21:28;3.13;;;0.50;;
4021;SDS011;2025;48.260;16.432;2023-05-06T08:23:55;2.03;;;0.30;;
4021;SDS011;2025;48.260;16.432;2023-05-06T08:26:22;2.50;;;0.32;;
4021;SDS011;2025;48.260;16.432;2023-05-06T08:28:50;3.60;;;0.57;;
4021;SDS011;2025;48.260;16.432;2023-05-06T08:31:17;2.55;;;0.35;;
4021;SDS011;2025;48.260;16.432;2023-05-06T08:33:44;2.38;;;0.52;;
4021;SDS011;2025;48.260;16.432;2023-05-06T08:36:11;3.42;;;0.65;;
4021;SDS011;2025;48.260;16.432;2023-05-06T08:38:38;1.85;;;0.20;;
4021;SDS011;2025;48.260;16.432;2023-05-06T08:41:08;3.47;;;0.30;;
4021;SDS011;2025;48.260;16.432;2023-05-06T08:43:39;2.38;;;0.50;;
4021;SDS011;2025;48.260;16.432;2023-05-06T08:46:08;2.15;;;0.75;;
4021;SDS011;2025;48.260;16.432;2023-05-06T08:48:35;3.25;;;0.40;;
4021;SDS011;2025;48.260;16.432;2023-05-06T08:51:02;4.70;;;0.95;;
4021;SDS011;2025;48.260;16.432;2023-05-06T08:53:30;2.72;;;0.30;;
4021;SDS011;2025;48.260;16.432;2023-05-06T08:56:00;3.03;;;0.30;;
4021;SDS011;2025;48.260;16.432;2023-05-06T08:58:29;2.95;;;0.50;;
4021;SDS011;2025;48.260;16.432;2023-05-06T09:00:58;3.22;;;0.50;;
4021;SDS011;2025;48.260;16.432;2023-05-06T09:03:28;3.17;;;0.55;;
4021;SDS011;2025;48.260;16.432;2023-05-06T09:05:55;3.05;;;0.68;;
4021;SDS011;2025;48.260;16.432;2023-05-06T09:08:22;2.53;;;0.22;;
4021;SDS011;2025;48.260;16.432;2023-05-06T09:10:49;2.03;;;0.30;;
4021;SDS011;2025;48.260;16.432;2023-05-06T09:13:17;2.05;;;0.52;;
4021;SDS011;2025;48.260;16.432;2023-05-06T09:15:45;2.65;;;0.40;;
4021;SDS011;2025;48.260;16.432;2023-05-06T09:18:13;3.38;;;0.45;;
4021;SDS011;2025;48.260;16.432;2023-05-06T09:20:43;2.75;;;1.05;;
4021;SDS011;2025;48.260;16.432;2023-05-06T09:23:12;2.53;;;0.45;;
4021;SDS011;2025;48.260;16.432;2023-05-06T09:25:41;2.80;;;0.55;;
4021;SDS011;2025;48.260;16.432;2023-05-06T09:28:11;3.38;;;0.65;;
4021;SDS011;2025;48.260;16.432;2023-05-06T09:30:39;2.47;;;0.40;;
4021;SDS011;2025;48.260;16.432;2023-05-06T09:33:07;2.13;;;0.45;;
4021;SDS011;2025;48.260;16.432;2023-05-06T09:35:35;2.90;;;0.30;;
4021;SDS011;2025;48.260;16.432;2023-05-06T09:38:04;2.10;;;0.35;;
4021;SDS011;2025;48.260;16.432;2023-05-06T09:40:33;3.25;;;0.63;;
4021;SDS011;2025;48.260;16.432;2023-05-06T09:43:00;2.15;;;0.30;;
4021;SDS011;2025;48.260;16.432;2023-05-06T09:47:59;2.22;;;0.40;;
4021;SDS011;2025;48.260;16.432;2023-05-06T09:50:26;2.13;;;0.32;;
4021;SDS011;2025;48.260;16.432;2023-05-06T09:52:54;3.13;;;0.40;;
4021;SDS011;2025;48.260;16.432;2023-05-06T09:55:23;2.58;;;0.47;;
4021;SDS011;2025;48.260;16.432;2023-05-06T09:57:51;3.03;;;0.52;;
4021;SDS011;2025;48.260;16.432;2023-05-06T10:00:18;2.78;;;0.43;;
4021;SDS011;2025;48.260;16.432;2023-05-06T10:02:51;3.35;;;0.55;;
4021;SDS011;2025;48.260;16.432;2023-05-06T10:05:18;3.17;;;0.45;;
4021;SDS011;2025;48.260;16.432;2023-05-06T10:07:46;3.33;;;0.43;;
4021;SDS011;2025;48.260;16.432;2023-05-06T10:10:14;3.15;;;0.63;;
4021;SDS011;2025;48.260;16.432;2023-05-06T10:12:43;3.58;;;0.68;;
4021;SDS011;2025;48.260;16.432;2023-05-06T10:15:11;2.58;;;0.30;;
4021;SDS011;2025;48.260;16.432;2023-05-06T10:17:39;2.58;;;0.90;;
4021;SDS011;2025;48.260;16.432;2023-05-06T10:20:11;3.50;;;0.50;;
4021;SDS011;2025;48.260;16.432;2023-05-06T10:22:40;2.65;;;0.43;;
4021;SDS011;2025;48.260;16.432;2023-05-06T10:25:29;2.88;;;0.43;;
4021;SDS011;2025;48.260;16.432;2023-05-06T10:28:02;3.40;;;0.60;;
4021;SDS011;2025;48.260;16.432;2023-05-06T10:30:29;3.05;;;0.63;;
4021;SDS011;2025;48.260;16.432;2023-05-06T10:32:59;3.03;;;0.50;;
4021;SDS011;2025;48.260;16.432;2023-05-06T10:35:31;2.55;;;0.32;;
4021;SDS011;2025;48.260;16.432;2023-05-06T10:38:27;3.30;;;0.73;;
4021;SDS011;2025;48.260;16.432;2023-05-06T10:40:57;3.70;;;0.73;;
4021;SDS011;2025;48.260;16.432;2023-05-06T10:43:26;3.20;;;1.05;;
4021;SDS011;2025;48.260;16.432;2023-05-06T10:46:02;3.55;;;0.63;;
4021;SDS011;2025;48.260;16.432;2023-05-06T10:48:30;2.97;;;0.70;;
4021;SDS011;2025;48.260;16.432;2023-05-06T10:56:21;2.70;;;0.50;;
4021;SDS011;2025;48.260;16.432;2023-05-06T10:58:49;3.50;;;1.27;;
4021;SDS011;2025;48.260;16.432;2023-05-06T11:01:19;3.50;;;0.82;;
4021;SDS011;2025;48.260;16.432;2023-05-06T11:03:48;4.97;;;0.80;;
4021;SDS011;2025;48.260;16.432;2023-05-06T11:06:30;3.80;;;0.93;;
4021;SDS011;2025;48.260;16.432;2023-05-06T11:08:58;5.90;;;1.27;;
4021;SDS011;2025;48.260;16.432;2023-05-06T11:14:14;3.28;;;0.75;;
4021;SDS011;2025;48.260;16.432;2023-05-06T11:16:50;2.90;;;0.80;;
4021;SDS011;2025;48.260;16.432;2023-05-06T11:19:18;3.58;;;0.82;;
4021;SDS011;2025;48.260;16.432;2023-05-06T11:21:48;2.88;;;0.68;;
4021;SDS011;2025;48.260;16.432;2023-05-06T11:24:20;2.92;;;0.93;;
4021;SDS011;2025;48.260;16.432;2023-05-06T11:26:49;3.55;;;0.47;;
4021;SDS011;2025;48.260;16.432;2023-05-06T11:29:18;3.42;;;0.60;;
4021;SDS011;2025;48.260;16.432;2023-05-06T11:31:45;3.38;;;0.68;;
4021;SDS011;2025;48.260;16.432;2023-05-06T11:34:17;2.92;;;0.93;;
4021;SDS011;2025;48.260;16.432;2023-05-06T11:36:48;3.55;;;1.02;;
4021;SDS011;2025;48.260;16.432;2023-05-06T11:39:17;3.90;;;0.88;;
4021;SDS011;2025;48.260;16.432;2023-05-06T11:41:44;3.60;;;0.85;;
4021;SDS011;2025;48.260;16.432;2023-05-06T11:44:22;5.35;;;1.60;;
4021;SDS011;2025;48.260;16.432;2023-05-06T11:46:54;3.05;;;0.63;;
4021;SDS011;2025;48.260;16.432;2023-05-06T11:49:22;3.63;;;0.47;;
4021;SDS011;2025;48.260;16.432;2023-05-06T11:51:51;2.20;;;0.68;;
4021;SDS011;2025;48.260;16.432;2023-05-06T11:54:18;3.33;;;0.52;;
4021;SDS011;2025;48.260;16.432;2023-05-06T11:56:50;4.47;;;0.40;;
4021;SDS011;2025;48.260;16.432;2023-05-06T11:59:26;3.15;;;0.77;;
4021;SDS011;2025;48.260;16.432;2023-05-06T12:01:56;3.42;;;0.50;;
4021;SDS011;2025;48.260;16.432;2023-05-06T12:04:24;3.63;;;1.40;;
4021;SDS011;2025;48.260;16.432;2023-05-06T12:06:51;3.20;;;0.90;;
4021;SDS011;2025;48.260;16.432;2023-05-06T12:09:19;4.70;;;1.20;;
4021;SDS011;2025;48.260;16.432;2023-05-06T12:11:47;2.92;;;0.55;;
4021;SDS011;2025;48.260;16.432;2023-05-06T12:14:15;3.10;;;0.90;;
4021;SDS011;2025;48.260;16.432;2023-05-06T12:16:43;3.40;;;0.63;;
4021;SDS011;2025;48.260;16.432;2023-05-06T12:19:11;3.50;;;0.85;;
4021;SDS011;2025;48.260;16.432;2023-05-06T12:21:40;4.03;;;0.70;;
4021;SDS011;2025;48.260;16.432;2023-05-06T12:24:07;2.85;;;0.80;;
4021;SDS011;2025;48.260;16.432;2023-05-06T12:26:41;5.10;;;0.93;;
4021;SDS011;2025;48.260;16.432;2023-05-06T12:29:10;3.35;;;0.80;;
4021;SDS011;2025;48.260;16.432;2023-05-06T12:31:39;4.93;;;0.77;;
4021;SDS011;2025;48.260;16.432;2023-05-06T12:34:08;3.88;;;0.50;;
4021;SDS011;2025;48.260;16.432;2023-05-06T12:36:39;3.25;;;0.77;;
4021;SDS011;2025;48.260;16.432;2023-05-06T12:39:07;2.70;;;0.60;;
4021;SDS011;2025;48.260;16.432;2023-05-06T12:41:36;4.57;;;0.73;;
4021;SDS011;2025;48.260;16.432;2023-05-06T12:47:00;4.10;;;0.50;;
4021;SDS011;2025;48.260;16.432;2023-05-06T12:52:24;3.38;;;0.70;;
4021;SDS011;2025;48.260;16.432;2023-05-06T12:54:52;2.75;;;0.93;;
4021;SDS011;2025;48.260;16.432;2023-05-06T12:57:20;2.20;;;0.40;;
4021;SDS011;2025;48.260;16.432;2023-05-06T12:59:47;3.17;;;0.52;;
4021;SDS011;2025;48.260;16.432;2023-05-06T13:02:14;3.05;;;0.47;;
4021;SDS011;2025;48.260;16.432;2023-05-06T13:04:41;3.38;;;0.40;;
4021;SDS011;2025;48.260;16.432;2023-05-06T13:07:10;3.13;;;0.73;;
4021;SDS011;2025;48.260;16.432;2023-05-06T13:09:39;2.88;;;0.40;;
4021;SDS011;2025;48.260;16.432;2023-05-06T13:12:06;2.53;;;0.38;;
4021;SDS011;2025;48.260;16.432;2023-05-06T13:14:33;2.55;;;0.22;;
4021;SDS011;2025;48.260;16.432;2023-05-06T13:17:00;3.88;;;0.32;;
4021;SDS011;2025;48.260;16.432;2023-05-06T13:19:30;1.95;;;0.32;;
4021;SDS011;2025;48.260;16.432;2023-05-06T13:21:57;3.22;;;0.60;;
4021;SDS011;2025;48.260;16.432;2023-05-06T13:24:24;2.47;;;0.50;;
4021;SDS011;2025;48.260;16.432;2023-05-06T13:26:52;2.83;;;0.40;;
4021;SDS011;2025;48.260;16.432;2023-05-06T13:29:21;2.60;;;0.40;;
4021;SDS011;2025;48.260;16.432;2023-05-06T13:31:48;3.53;;;0.40;;
4021;SDS011;2025;48.260;16.432;2023-05-06T13:34:15;2.40;;;0.20;;
4021;SDS011;2025;48.260;16.432;2023-05-06T13:36:42;2.38;;;0.47;;
4021;SDS011;2025;48.260;16.432;2023-05-06T13:39:10;2.22;;;0.40;;
4021;SDS011;2025;48.260;16.432;2023-05-06T13:41:38;2.47;;;0.28;;
4021;SDS011;2025;48.260;16.432;2023-05-06T13:44:06;2.58;;;0.38;;
4021;SDS011;2025;48.260;16.432;2023-05-06T13:46:34;2.67;;;0.63;;
4021;SDS011;2025;48.260;16.432;2023-05-06T13:49:01;2.83;;;0.32;;
4021;SDS011;2025;48.260;16.432;2023-05-06T13:51:28;2.80;;;0.52;;
4021;SDS011;2025;48.260;16.432;2023-05-06T13:53:57;2.20;;;0.40;;
4021;SDS011;2025;48.260;16.432;2023-05-06T13:56:24;2.75;;;0.40;;
4021;SDS011;2025;48.260;16.432;2023-05-06T13:58:52;3.25;;;0.30;;
4021;SDS011;2025;48.260;16.432;2023-05-06T14:01:20;2.90;;;0.57;;
4021;SDS011;2025;48.260;16.432;2023-05-06T14:03:47;4.07;;;1.08;;
4021;SDS011;2025;48.260;16.432;2023-05-06T14:06:15;5.57;;;0.55;;
4021;SDS011;2025;48.260;16.432;2023-05-06T14:08:43;4.38;;;0.13;;
4021;SDS011;2025;48.260;16.432;2023-05-06T14:11:10;5.40;;;0.30;;
4021;SDS011;2025;48.260;16.432;2023-05-06T14:13:38;7.55;;;0.90;;
4021;SDS011;2025;48.260;16.432;2023-05-06T14:16:05;5.80;;;0.85;;
4021;SDS011;2025;48.260;16.432;2023-05-06T14:18:34;2.28;;;0.20;;
4021;SDS011;2025;48.260;16.432;2023-05-06T14:21:01;2.40;;;0.20;;
4021;SDS011;2025;48.260;16.432;2023-05-06T14:23:28;4.68;;;0.40;;
4021;SDS011;2025;48.260;16.432;2023-05-06T14:25:56;3.25;;;0.50;;
4021;SDS011;2025;48.260;16.432;2023-05-06T14:28:23;1.63;;;0.20;;
4021;SDS011;2025;48.260;16.432;2023-05-06T14:30:50;2.97;;;0.43;;
4021;SDS011;2025;48.260;16.432;2023-05-06T14:33:17;2.90;;;0.30;;
4021;SDS011;2025;48.260;16.432;2023-05-06T14:35:46;2.38;;;0.50;;
4021;SDS011;2025;48.260;16.432;2023-05-06T14:38:13;3.75;;;0.20;;
4021;SDS011;2025;48.260;16.432;2023-05-06T14:40:39;1.70;;;0.13;;
4021;SDS011;2025;48.260;16.432;2023-05-06T14:43:06;1.98;;;0.20;;
4021;SDS011;2025;48.260;16.432;2023-05-06T14:45:33;2.88;;;0.30;;
4021;SDS011;2025;48.260;16.432;2023-05-06T14:48:00;3.65;;;0.52;;
4021;SDS011;2025;48.260;16.432;2023-05-06T14:50:28;3.38;;;0.30;;
4021;SDS011;2025;48.260;16.432;2023-05-06T14:52:57;2.13;;;0.30;;
4021;SDS011;2025;48.260;16.432;2023-05-06T14:55:24;7.78;;;0.98;;
4021;SDS011;2025;48.260;16.432;2023-05-06T14:57:51;3.17;;;0.30;;
4021;SDS011;2025;48.260;16.432;2023-05-06T15:00:18;4.93;;;0.52;;
4021;SDS011;2025;48.260;16.432;2023-05-06T15:02:45;2.28;;;0.40;;
4021;SDS011;2025;48.260;16.432;2023-05-06T15:05:12;2.55;;;0.40;;
4021;SDS011;2025;48.260;16.432;2023-05-06T15:07:40;2.00;;;0.25;;
4021;SDS011;2025;48.260;16.432;2023-05-06T15:10:09;4.10;;;0.40;;
4021;SDS011;2025;48.260;16.432;2023-05-06T15:12:36;2.60;;;0.38;;
4021;SDS011;2025;48.260;16.432;2023-05-06T15:15:03;2.72;;;0.30;;
4021;SDS011;2025;48.260;16.432;2023-05-06T15:17:31;2.85;;;0.30;;
4021;SDS011;2025;48.260;16.432;2023-05-06T15:19:58;4.32;;;0.63;;
4021;SDS011;2025;48.260;16.432;2023-05-06T15:22:25;3.40;;;0.50;;
4021;SDS011;2025;48.260;16.432;2023-05-06T15:24:52;2.90;;;0.55;;